Hydetown, Pennsylvania
Current Conditions -  °F | °C
As of 10:55 PM on Friday 24 Oct 2014 (Local Time) from KFKL Reporting Station
Overcast Overcast  
Wind Chill: 46°   Ceiling: 4800
Heat Index: 46°   Visibility: 10mi
Dew Point: 39°   Wind: 0mph
Humidity: 76%   Direction: NA
Pressure: 30.01"   Gusts: NA
Location:  41.65°N, 79.73°W
Report Text: KFKL 250255Z 00000KT 10SM FEW035 OVC048 08/04 A3001 RMK AO1 54000
Loading
Personal Weather Stations






























Interactive Weather Map
Tropical Storm Tracking
New forecast layout! Learn more

10-Day Weather Forecast

Advertisements
Track Severe Weather on mobile